createdAt,value
2018-06-16T00:01:47.031Z,13.13
2018-06-16T00:04:14.338Z,13.63
2018-06-16T00:06:41.615Z,13.43
2018-06-16T00:09:09.418Z,14.33
2018-06-16T00:11:36.899Z,15.03
2018-06-16T00:14:04.130Z,15.60
2018-06-16T00:16:31.398Z,14.83
2018-06-16T00:18:58.630Z,15.10
2018-06-16T00:21:25.931Z,14.77
2018-06-16T00:23:53.300Z,15.33
2018-06-16T00:26:20.567Z,15.00
2018-06-16T00:28:47.779Z,15.00
2018-06-16T00:31:15.032Z,13.87
2018-06-16T00:33:42.635Z,13.73
2018-06-16T00:36:09.903Z,14.13
2018-06-16T00:38:37.192Z,14.33
2018-06-16T00:41:04.428Z,14.47
2018-06-16T00:43:31.684Z,15.47
2018-06-16T00:45:58.963Z,15.00
2018-06-16T00:48:26.236Z,15.50
2018-06-16T00:50:53.484Z,16.27
2018-06-16T00:53:20.734Z,14.67
2018-06-16T00:55:47.970Z,15.70
2018-06-16T00:58:15.236Z,16.43
2018-06-16T01:00:42.478Z,15.37
2018-06-16T01:03:09.727Z,15.47
2018-06-16T01:05:37.004Z,15.83
2018-06-16T01:08:04.298Z,15.87
2018-06-16T01:10:31.543Z,16.73
2018-06-16T01:13:00.188Z,16.37
2018-06-16T01:15:27.508Z,16.37
2018-06-16T01:17:54.780Z,15.93
2018-06-16T01:20:22.020Z,16.73
2018-06-16T01:22:49.299Z,17.23
2018-06-16T01:25:16.555Z,15.60
2018-06-16T01:27:44.302Z,15.97
2018-06-16T01:30:11.560Z,16.53
2018-06-16T01:32:38.811Z,17.10
2018-06-16T01:35:06.018Z,17.00
2018-06-16T01:37:33.255Z,17.47
2018-06-16T01:40:00.552Z,17.13
2018-06-16T01:42:27.774Z,16.97
2018-06-16T01:44:55.003Z,16.67
2018-06-16T01:47:24.538Z,16.60
2018-06-16T01:49:51.758Z,17.40
2018-06-16T01:52:19.096Z,17.67
2018-06-16T01:54:46.309Z,16.97
2018-06-16T01:57:13.539Z,17.83
2018-06-16T01:59:40.749Z,18.37
2018-06-16T02:02:07.970Z,17.27
2018-06-16T02:04:35.250Z,18.83
2018-06-16T02:07:02.459Z,18.00
2018-06-16T02:09:29.701Z,18.00
2018-06-16T02:11:56.960Z,17.63
2018-06-16T02:14:24.200Z,17.93
2018-06-16T02:16:51.453Z,17.83
2018-06-16T02:19:18.758Z,18.37
2018-06-16T02:21:45.968Z,17.83
2018-06-16T02:24:13.178Z,16.70
2018-06-16T02:26:40.404Z,16.93
2018-06-16T02:29:07.672Z,17.00
2018-06-16T02:31:34.975Z,17.93
2018-06-16T02:34:02.247Z,16.93
2018-06-16T02:36:29.482Z,18.27
2018-06-16T02:38:56.767Z,16.70
2018-06-16T02:41:24.054Z,18.20
2018-06-16T02:43:51.358Z,17.97
2018-06-16T02:46:18.584Z,17.13
2018-06-16T02:48:45.833Z,17.67
2018-06-16T02:51:13.059Z,17.73
2018-06-16T02:53:40.320Z,17.13
2018-06-16T02:56:08.522Z,16.13
2018-06-16T02:58:35.978Z,15.60
2018-06-16T03:01:03.795Z,16.07
2018-06-16T03:03:31.061Z,15.97
2018-06-16T03:05:58.319Z,15.53
2018-06-16T03:08:25.555Z,17.27
2018-06-16T03:10:52.835Z,16.67
2018-06-16T03:13:20.076Z,16.80
2018-06-16T03:15:47.339Z,17.03
2018-06-16T03:18:14.608Z,16.30
2018-06-16T03:20:41.866Z,16.93
2018-06-16T03:23:09.115Z,16.70
2018-06-16T03:25:36.357Z,16.60
2018-06-16T03:28:03.616Z,16.70
2018-06-16T03:30:30.871Z,17.40
2018-06-16T03:32:58.140Z,16.83
2018-06-16T03:35:25.454Z,17.03
2018-06-16T03:37:52.699Z,16.73
2018-06-16T03:40:19.947Z,15.97
2018-06-16T03:42:47.170Z,15.90
2018-06-16T03:45:14.415Z,16.20
2018-06-16T03:47:41.708Z,15.87
2018-06-16T03:50:08.944Z,16.10
2018-06-16T03:52:36.162Z,16.20
2018-06-16T03:55:03.375Z,16.33
2018-06-16T03:57:30.631Z,15.60
2018-06-16T03:59:57.891Z,16.97
2018-06-16T04:02:25.126Z,16.00
2018-06-16T04:04:52.367Z,15.20
2018-06-16T04:07:19.580Z,15.50
2018-06-16T04:09:46.866Z,16.17
2018-06-16T04:12:14.151Z,14.87
2018-06-16T04:14:41.436Z,15.33
2018-06-16T04:17:20.648Z,15.53
2018-06-16T04:19:50.147Z,15.67
2018-06-16T04:22:17.576Z,15.60
2018-06-16T04:24:44.774Z,16.57
2018-06-16T04:27:12.068Z,16.47
2018-06-16T04:29:39.408Z,15.87
2018-06-16T04:32:06.738Z,15.40
2018-06-16T04:34:34.454Z,15.80
2018-06-16T04:37:01.835Z,15.83
2018-06-16T04:39:29.082Z,16.40
2018-06-16T04:41:56.340Z,15.80
2018-06-16T04:44:23.572Z,15.83
2018-06-16T04:46:50.811Z,15.87
2018-06-16T04:49:18.030Z,16.10
2018-06-16T04:51:45.266Z,17.20
2018-06-16T04:54:12.499Z,17.03
2018-06-16T04:56:39.720Z,16.53
2018-06-16T04:59:06.971Z,16.80
2018-06-16T05:01:34.679Z,17.00
2018-06-16T05:04:01.929Z,16.10
2018-06-16T05:06:29.149Z,17.20
2018-06-16T05:08:56.471Z,17.33
2018-06-16T05:11:23.694Z,17.70
2018-06-16T05:13:50.939Z,17.30
2018-06-16T05:16:18.164Z,16.07
2018-06-16T05:18:45.458Z,17.00
2018-06-16T05:21:12.742Z,16.00
2018-06-16T05:23:39.999Z,16.47
2018-06-16T05:26:07.276Z,17.27
2018-06-16T05:28:34.511Z,16.53
2018-06-16T05:31:01.746Z,16.63
2018-06-16T05:33:28.931Z,16.33
2018-06-16T05:35:56.635Z,16.03
2018-06-16T05:38:23.957Z,16.17
2018-06-16T05:40:51.179Z,16.10
2018-06-16T05:43:18.378Z,16.50
2018-06-16T05:45:45.634Z,16.27
2018-06-16T05:48:12.878Z,15.93
2018-06-16T05:50:40.123Z,17.20
2018-06-16T05:53:07.366Z,16.50
2018-06-16T05:55:34.609Z,16.30
2018-06-16T05:58:01.908Z,15.57
2018-06-16T06:00:29.164Z,16.90
2018-06-16T06:02:56.538Z,16.20
2018-06-16T06:05:23.814Z,18.33
2018-06-16T06:07:51.098Z,17.47
2018-06-16T06:10:18.435Z,17.40
2018-06-16T06:12:45.723Z,17.83
2018-06-16T06:15:12.983Z,17.87
2018-06-16T06:17:43.337Z,17.23
2018-06-16T06:20:10.577Z,17.40
2018-06-16T06:22:37.811Z,17.27
2018-06-16T06:25:05.223Z,17.30
2018-06-16T06:27:32.525Z,16.48
2018-06-16T06:29:59.827Z,16.63
2018-06-16T06:32:27.083Z,16.57
2018-06-16T06:34:54.312Z,16.07
2018-06-16T06:37:21.568Z,15.13
2018-06-16T06:39:48.815Z,14.55
2018-06-16T06:42:16.075Z,14.90
2018-06-16T06:44:43.343Z,13.72
2018-06-16T06:47:10.635Z,14.15
2018-06-16T06:49:37.899Z,14.58
2018-06-16T06:52:05.216Z,12.78
2018-06-16T06:54:32.470Z,13.22
2018-06-16T06:56:59.762Z,13.58
2018-06-16T06:59:27.004Z,13.20
2018-06-16T07:01:54.250Z,13.20
2018-06-16T07:07:14.648Z,13.75
2018-06-16T07:09:41.951Z,13.93
2018-06-16T07:12:09.414Z,12.73
2018-06-16T07:14:36.659Z,13.05
2018-06-16T07:17:03.915Z,12.70
2018-06-16T07:19:31.148Z,12.33
2018-06-16T07:21:58.448Z,12.37
2018-06-16T07:24:25.710Z,12.07
2018-06-16T07:26:52.975Z,12.43
2018-06-16T07:29:20.259Z,12.50
2018-06-16T07:31:47.492Z,11.15
2018-06-16T07:34:15.022Z,10.80
2018-06-16T07:36:42.257Z,10.13
2018-06-16T07:39:10.094Z,10.58
2018-06-16T07:41:37.351Z,10.38
2018-06-16T07:44:04.806Z,9.70
2018-06-16T07:46:32.097Z,8.33
2018-06-16T07:48:59.379Z,9.65
2018-06-16T07:51:26.828Z,8.33
2018-06-16T07:53:54.331Z,8.15
2018-06-16T07:56:21.860Z,7.90
2018-06-16T07:58:49.123Z,8.78
2018-06-16T08:01:16.898Z,8.23
2018-06-16T08:03:44.164Z,7.47
2018-06-16T08:06:11.435Z,7.42
2018-06-16T08:08:38.719Z,6.62
2018-06-16T08:11:06.025Z,7.70
2018-06-16T08:13:33.431Z,7.22
2018-06-16T08:16:00.692Z,6.42
2018-06-16T08:18:27.931Z,6.58
2018-06-16T08:20:55.158Z,5.67
2018-06-16T08:23:22.425Z,5.92
2018-06-16T08:25:49.677Z,5.70
2018-06-16T08:28:16.959Z,5.87
2018-06-16T08:30:44.207Z,5.65
2018-06-16T08:33:11.498Z,5.55
2018-06-16T08:35:38.706Z,5.20
2018-06-16T08:38:05.968Z,5.15
2018-06-16T08:40:33.240Z,5.10
2018-06-16T08:43:00.495Z,4.90
2018-06-16T08:45:27.730Z,5.15
2018-06-16T08:47:55.034Z,5.20
2018-06-16T08:50:22.306Z,5.28
2018-06-16T08:52:49.833Z,5.00
2018-06-16T08:55:17.366Z,4.45
2018-06-16T08:57:44.583Z,4.85
2018-06-16T09:00:11.836Z,4.60
2018-06-16T09:02:39.101Z,4.15
2018-06-16T09:05:06.507Z,4.00
2018-06-16T09:07:33.780Z,4.42
2018-06-16T09:10:00.986Z,4.12
2018-06-16T09:12:28.224Z,3.70
2018-06-16T09:14:55.446Z,3.72
2018-06-16T09:17:22.721Z,3.60
2018-06-16T09:19:49.887Z,3.55
2018-06-16T09:22:17.142Z,3.72
2018-06-16T09:24:44.382Z,4.05
2018-06-16T09:27:11.603Z,4.20
2018-06-16T09:29:38.842Z,4.10
2018-06-16T09:32:06.059Z,3.92
2018-06-16T09:34:33.307Z,4.20
2018-06-16T09:37:06.468Z,4.45
2018-06-16T09:39:33.751Z,4.53
2018-06-16T09:42:00.988Z,4.83
2018-06-16T09:44:28.190Z,4.33
2018-06-16T09:46:55.675Z,4.60
2018-06-16T09:49:22.948Z,4.60
2018-06-16T09:51:50.215Z,4.22
2018-06-16T09:54:17.453Z,4.12
2018-06-16T09:56:50.419Z,4.47
2018-06-16T09:59:17.675Z,4.60
2018-06-16T10:01:44.902Z,5.87
2018-06-16T10:04:12.151Z,3.75
2018-06-16T10:06:40.010Z,3.27
2018-06-16T10:09:08.316Z,3.60
2018-06-16T10:11:35.563Z,3.30
2018-06-16T10:14:02.962Z,3.42
2018-06-16T10:16:30.286Z,3.22
2018-06-16T10:18:57.626Z,3.08
2018-06-16T10:21:24.959Z,3.08
2018-06-16T10:23:52.275Z,3.10
2018-06-16T10:29:12.320Z,3.60
2018-06-16T10:31:39.538Z,3.60
2018-06-16T10:34:06.819Z,3.52
2018-06-16T10:36:34.155Z,2.90
2018-06-16T10:39:01.447Z,3.05
2018-06-16T10:41:28.687Z,2.98
2018-06-16T10:43:55.988Z,2.60
2018-06-16T10:46:23.204Z,2.83
2018-06-16T10:48:50.422Z,2.95
2018-06-16T10:51:17.629Z,3.10
2018-06-16T10:53:47.111Z,2.90
2018-06-16T10:56:14.356Z,3.00
2018-06-16T10:58:41.694Z,3.30
2018-06-16T11:01:08.890Z,2.58
2018-06-16T11:03:36.144Z,2.47
2018-06-16T11:06:03.372Z,2.20
2018-06-16T11:08:30.719Z,2.17
2018-06-16T11:10:57.919Z,2.55
2018-06-16T11:13:25.149Z,2.90
2018-06-16T11:15:52.356Z,3.00
2018-06-16T11:18:19.576Z,3.65
2018-06-16T11:20:46.819Z,3.80
2018-06-16T11:23:14.027Z,4.20
2018-06-16T11:25:41.276Z,4.28
2018-06-16T11:28:08.616Z,4.50
2018-06-16T11:30:35.853Z,4.42
2018-06-16T11:33:03.082Z,4.47
2018-06-16T11:35:30.295Z,4.60
2018-06-16T11:37:57.499Z,4.65
2018-06-16T11:40:24.747Z,4.10
2018-06-16T11:42:51.977Z,4.87
2018-06-16T11:45:19.211Z,4.55
2018-06-16T11:47:46.414Z,4.28
2018-06-16T11:50:13.676Z,4.67
2018-06-16T11:52:41.461Z,4.62
2018-06-16T11:55:08.733Z,4.90
2018-06-16T11:57:36.106Z,4.22
2018-06-16T12:00:03.388Z,4.55
2018-06-16T12:02:30.619Z,4.60
2018-06-16T12:04:57.842Z,4.42
2018-06-16T12:07:25.089Z,4.50
2018-06-16T12:09:52.507Z,4.62
2018-06-16T12:12:19.743Z,4.42
2018-06-16T12:14:46.951Z,4.15
2018-06-16T12:17:14.246Z,4.10
2018-06-16T12:19:41.470Z,4.28
2018-06-16T12:22:08.743Z,4.67
2018-06-16T12:24:35.971Z,4.35
2018-06-16T12:27:03.281Z,4.65
2018-06-16T12:29:30.534Z,4.35
2018-06-16T12:31:57.766Z,4.33
2018-06-16T12:34:24.978Z,4.40
2018-06-16T12:36:52.203Z,4.42
2018-06-16T12:39:19.419Z,4.45
2018-06-16T12:41:46.682Z,4.42
2018-06-16T12:44:13.878Z,5.00
2018-06-16T12:46:41.246Z,4.78
2018-06-16T12:49:08.476Z,4.75
2018-06-16T12:51:35.739Z,4.70
2018-06-16T12:54:02.951Z,4.80
2018-06-16T12:56:30.484Z,5.08
2018-06-16T12:58:57.826Z,5.08
2018-06-16T13:01:25.077Z,4.60
2018-06-16T13:03:52.418Z,4.70
2018-06-16T13:06:19.903Z,4.47
2018-06-16T13:08:47.119Z,4.55
2018-06-16T13:11:14.721Z,4.72
2018-06-16T13:13:42.179Z,4.50
2018-06-16T13:16:09.464Z,4.78
2018-06-16T13:18:36.691Z,4.10
2018-06-16T13:21:03.939Z,4.50
2018-06-16T13:23:31.235Z,4.47
2018-06-16T13:25:58.516Z,4.78
2018-06-16T13:28:25.719Z,4.30
2018-06-16T13:30:52.954Z,3.92
2018-06-16T13:33:20.174Z,4.25
2018-06-16T13:35:47.427Z,4.72
2018-06-16T13:38:14.710Z,4.67
2018-06-16T13:40:41.948Z,4.42
2018-06-16T13:43:09.226Z,4.60
2018-06-16T13:45:36.642Z,4.45
2018-06-16T13:48:03.936Z,4.40
2018-06-16T13:50:31.143Z,4.10
2018-06-16T13:52:58.712Z,4.50
2018-06-16T13:55:25.943Z,4.87
2018-06-16T13:57:53.180Z,4.33
2018-06-16T14:00:20.447Z,4.30
2018-06-16T14:02:47.779Z,4.55
2018-06-16T14:05:15.011Z,4.25
2018-06-16T14:07:42.317Z,4.53
2018-06-16T14:10:09.541Z,4.17
2018-06-16T14:12:37.044Z,4.25
2018-06-16T14:15:04.363Z,4.30
2018-06-16T14:17:31.621Z,4.20
2018-06-16T14:19:58.890Z,4.40
2018-06-16T14:22:26.193Z,4.65
2018-06-16T14:24:53.432Z,4.40
2018-06-16T14:27:20.717Z,4.30
2018-06-16T14:29:47.927Z,4.40
2018-06-16T14:32:15.190Z,4.25
2018-06-16T14:34:42.424Z,4.30
2018-06-16T14:37:09.718Z,4.40
2018-06-16T14:39:36.995Z,4.00
2018-06-16T14:42:04.976Z,4.47
2018-06-16T14:44:32.415Z,4.42
2018-06-16T14:46:59.654Z,4.58
2018-06-16T14:49:26.907Z,4.33
2018-06-16T14:51:54.188Z,4.50
2018-06-16T14:54:21.435Z,4.80
2018-06-16T14:56:48.687Z,4.65
2018-06-16T14:59:15.881Z,4.85
2018-06-16T15:01:43.132Z,4.40
2018-06-16T15:04:10.401Z,4.62
2018-06-16T15:06:37.659Z,4.62
2018-06-16T15:09:07.342Z,4.58
2018-06-16T15:11:34.563Z,4.62
2018-06-16T15:14:01.799Z,4.90
2018-06-16T15:16:29.027Z,4.90
2018-06-16T15:18:56.265Z,4.65
2018-06-16T15:21:23.493Z,4.90
2018-06-16T15:23:50.737Z,4.80
2018-06-16T15:26:17.956Z,4.75
2018-06-16T15:28:45.187Z,4.47
2018-06-16T15:31:12.418Z,5.00
2018-06-16T15:33:39.710Z,4.47
2018-06-16T15:36:06.943Z,4.47
2018-06-16T15:38:34.171Z,4.60
2018-06-16T15:41:01.382Z,5.10
2018-06-16T15:43:28.611Z,4.55
2018-06-16T15:45:55.933Z,4.87
2018-06-16T15:48:23.194Z,4.62
2018-06-16T15:50:50.438Z,4.97
2018-06-16T15:53:17.693Z,4.40
2018-06-16T15:55:44.911Z,4.50
2018-06-16T15:58:12.190Z,4.40
2018-06-16T16:00:39.426Z,4.87
2018-06-16T16:03:06.635Z,5.00
2018-06-16T16:05:33.843Z,5.05
2018-06-16T16:08:01.114Z,5.10
2018-06-16T16:10:28.326Z,4.97
2018-06-16T16:12:55.595Z,6.03
2018-06-16T16:15:22.830Z,5.65
2018-06-16T16:17:50.035Z,5.62
2018-06-16T16:20:17.248Z,6.10
2018-06-16T16:22:44.803Z,5.72
2018-06-16T16:25:12.023Z,5.95
2018-06-16T16:27:39.250Z,5.85
2018-06-16T16:30:06.523Z,6.55
2018-06-16T16:32:34.110Z,7.47
2018-06-16T16:35:01.343Z,8.40
2018-06-16T16:37:28.568Z,8.30
2018-06-16T16:39:55.779Z,8.10
2018-06-16T16:42:23.027Z,9.23
2018-06-16T16:44:50.724Z,7.90
2018-06-16T16:47:17.985Z,7.22
2018-06-16T16:49:45.226Z,6.95
2018-06-16T16:52:12.486Z,6.03
2018-06-16T16:54:39.782Z,5.85
2018-06-16T16:57:07.219Z,5.80
2018-06-16T16:59:34.478Z,5.92
2018-06-16T17:02:01.695Z,6.10
2018-06-16T17:04:28.926Z,6.33
2018-06-16T17:06:56.142Z,5.72
2018-06-16T17:09:23.378Z,5.90
2018-06-16T17:11:50.639Z,6.08
2018-06-16T17:14:17.965Z,6.83
2018-06-16T17:16:45.202Z,6.35
2018-06-16T17:19:12.500Z,6.80
2018-06-16T17:21:39.717Z,6.28
2018-06-16T17:24:06.943Z,6.50
2018-06-16T17:26:34.167Z,7.15
2018-06-16T17:29:01.399Z,7.17
2018-06-16T17:31:28.691Z,7.33
2018-06-16T17:33:55.947Z,6.58
2018-06-16T17:36:23.223Z,8.10
2018-06-16T17:38:50.464Z,6.30
2018-06-16T17:41:17.696Z,6.83
2018-06-16T17:43:45.044Z,6.75
2018-06-16T17:46:12.204Z,6.83
2018-06-16T17:48:39.442Z,7.15
2018-06-16T17:51:06.711Z,6.80
2018-06-16T17:53:33.899Z,6.62
2018-06-16T17:56:01.201Z,6.67
2018-06-16T17:58:28.409Z,6.75
2018-06-16T18:00:55.643Z,6.65
2018-06-16T18:03:22.953Z,7.15
2018-06-16T18:05:50.175Z,7.30
2018-06-16T18:08:17.388Z,6.90
2018-06-16T18:10:44.644Z,7.10
2018-06-16T18:13:11.871Z,6.67
2018-06-16T18:15:39.170Z,6.90
2018-06-16T18:18:06.354Z,6.83
2018-06-16T18:20:33.583Z,7.30
2018-06-16T18:23:00.794Z,7.50
2018-06-16T18:25:28.073Z,6.92
2018-06-16T18:27:55.223Z,7.05
2018-06-16T18:30:22.464Z,8.38
2018-06-16T18:32:49.708Z,7.08
2018-06-16T18:35:16.947Z,7.80
2018-06-16T18:37:44.249Z,7.12
2018-06-16T18:40:11.462Z,7.10
2018-06-16T18:42:38.734Z,6.87
2018-06-16T18:45:05.962Z,7.22
2018-06-16T18:47:33.190Z,7.15
2018-06-16T18:50:00.427Z,7.10
2018-06-16T18:52:27.666Z,7.47
2018-06-16T18:54:54.943Z,8.03
2018-06-16T18:57:22.152Z,6.85
2018-06-16T18:59:49.462Z,7.75
2018-06-16T19:02:16.671Z,8.15
2018-06-16T19:04:43.891Z,8.38
2018-06-16T19:07:11.116Z,9.95
2018-06-16T19:09:38.330Z,15.05
2018-06-16T19:12:05.515Z,12.25
2018-06-16T19:14:32.774Z,10.28
2018-06-16T19:17:00.144Z,9.30
2018-06-16T19:19:27.389Z,10.15
2018-06-16T19:21:54.621Z,9.45
2018-06-16T19:24:21.840Z,10.40
2018-06-16T19:26:49.126Z,9.83
2018-06-16T19:29:16.411Z,9.28
2018-06-16T19:31:43.642Z,10.60
2018-06-16T19:34:11.730Z,10.78
2018-06-16T19:36:38.958Z,12.93
2018-06-16T19:39:07.680Z,13.00
2018-06-16T19:41:34.899Z,15.08
2018-06-16T19:44:02.114Z,13.70
2018-06-16T19:46:29.347Z,12.07
2018-06-16T19:48:56.558Z,10.68
2018-06-16T19:51:23.799Z,10.23
2018-06-16T19:53:51.034Z,9.45
2018-06-16T19:56:18.298Z,9.90
2018-06-16T19:58:45.524Z,8.23
2018-06-16T20:01:12.760Z,8.93
2018-06-16T20:03:39.987Z,8.90
2018-06-16T20:06:07.211Z,9.23
2018-06-16T20:08:34.432Z,9.13
2018-06-16T20:11:01.683Z,9.18
2018-06-16T20:13:28.955Z,9.28
2018-06-16T20:15:56.230Z,9.53
2018-06-16T20:18:23.472Z,9.20
2018-06-16T20:20:50.750Z,8.73
2018-06-16T20:23:17.976Z,9.15
2018-06-16T20:25:45.209Z,8.78
2018-06-16T20:28:12.419Z,9.25
2018-06-16T20:30:39.743Z,9.30
2018-06-16T20:33:09.730Z,13.65
2018-06-16T20:35:36.980Z,11.60
2018-06-16T20:38:04.217Z,10.63
2018-06-16T20:40:31.456Z,10.85
2018-06-16T20:42:58.691Z,10.60
2018-06-16T20:45:25.913Z,10.53
2018-06-16T20:47:53.190Z,10.93
2018-06-16T20:50:20.370Z,10.53
2018-06-16T20:52:47.611Z,10.65
2018-06-16T20:55:14.875Z,10.88
2018-06-16T20:57:42.147Z,10.35
2018-06-16T21:00:09.368Z,10.38
2018-06-16T21:02:36.623Z,11.00
2018-06-16T21:05:04.107Z,11.30
2018-06-16T21:07:31.327Z,10.93
2018-06-16T21:09:58.555Z,11.50
2018-06-16T21:12:25.786Z,10.90
2018-06-16T21:14:53.018Z,11.68
2018-06-16T21:17:20.372Z,10.60
2018-06-16T21:19:47.578Z,11.03
2018-06-16T21:22:15.178Z,10.38
2018-06-16T21:24:42.513Z,11.33
2018-06-16T21:27:09.732Z,11.15
2018-06-16T21:29:36.964Z,10.82
2018-06-16T21:32:04.221Z,10.53
2018-06-16T21:34:31.850Z,11.00
2018-06-16T21:36:59.127Z,11.63
2018-06-16T21:39:26.353Z,11.30
2018-06-16T21:41:53.628Z,10.78
2018-06-16T21:44:20.834Z,11.43
2018-06-16T21:46:48.052Z,11.45
2018-06-16T21:49:15.284Z,11.10
2018-06-16T21:51:42.521Z,11.63
2018-06-16T21:54:10.453Z,11.83
2018-06-16T21:56:37.700Z,12.37
2018-06-16T21:59:04.978Z,12.75
2018-06-16T22:01:34.641Z,12.33
2018-06-16T22:04:02.421Z,12.63
2018-06-16T22:06:29.673Z,12.80
2018-06-16T22:08:57.139Z,13.48
2018-06-16T22:11:24.375Z,12.50
2018-06-16T22:13:51.704Z,12.90
2018-06-16T22:16:18.929Z,13.28
2018-06-16T22:18:46.163Z,18.12
2018-06-16T22:21:13.443Z,15.10
2018-06-16T22:23:41.143Z,14.25
2018-06-16T22:26:08.374Z,13.75
2018-06-16T22:28:36.592Z,14.13
2018-06-16T22:31:03.800Z,19.05
2018-06-16T22:33:31.027Z,15.28
2018-06-16T22:35:58.284Z,14.43
2018-06-16T22:38:25.514Z,13.32
2018-06-16T22:40:53.016Z,13.53
2018-06-16T22:43:20.327Z,13.58
2018-06-16T22:45:47.572Z,22.17
2018-06-16T22:48:14.820Z,20.88
2018-06-16T22:50:42.082Z,16.45
2018-06-16T22:53:09.338Z,15.18
2018-06-16T22:55:36.557Z,14.47
2018-06-16T22:58:03.823Z,15.50
2018-06-16T23:00:32.021Z,14.93
2018-06-16T23:02:59.317Z,15.23
2018-06-16T23:05:26.554Z,15.68
2018-06-16T23:07:53.907Z,14.75
2018-06-16T23:10:21.471Z,17.52
2018-06-16T23:12:48.704Z,16.07
2018-06-16T23:15:16.282Z,15.63
2018-06-16T23:17:43.530Z,15.32
2018-06-16T23:20:10.875Z,16.00
2018-06-16T23:22:38.106Z,16.30
2018-06-16T23:25:05.314Z,15.93
2018-06-16T23:27:32.546Z,15.85
2018-06-16T23:29:59.772Z,16.93
2018-06-16T23:32:26.995Z,15.98
2018-06-16T23:34:54.219Z,16.73
2018-06-16T23:37:21.447Z,16.57
2018-06-16T23:39:48.662Z,16.95
2018-06-16T23:42:15.871Z,16.52
2018-06-16T23:44:43.123Z,16.27
2018-06-16T23:47:10.816Z,17.27
2018-06-16T23:49:38.030Z,16.62
2018-06-16T23:52:05.267Z,17.12
2018-06-16T23:54:32.467Z,16.93
2018-06-16T23:56:59.681Z,16.20
2018-06-16T23:59:26.871Z,16.60
